Impacts TAF Board
For situational awareness. Not to be used for flight planning purposes.
IDs:

KMCO - Orlando Intl, FL, US

Issued at 2340 UTC 21 Sep 2021
Updated at 2358 UTC 21 Sep 2021
Potential Impact None Slight Moderate High
Time2353Z 22/00Z 22/01Z 22/02Z 22/03Z 22/04Z 22/05Z 22/06Z 22/07Z 22/08Z 22/09Z 22/10Z 22/11Z 22/12Z>>
Type OBS PRVL PRVL PRVL PRVL PRVL PRVL PRVL PRVL PRVL PRVL
  [TEMP]  
PRVL
  [TEMP]  
PRVL
  [TEMP]  
PRVL
VIS 10 >6 >6 >6 >6 >6 >6 >6 >6 >6 >6 >6 >6 >6
CIG 150 200 200 200 200 200 200 200 200 200 200
  [15]  
200
  [15]  
200
  [15]  
200
Cover BKN BKN BKN BKN BKN BKN BKN BKN BKN BKN BKN
  [BKN]  
BKN
  [BKN]  
BKN
  [BKN]  
BKN
FltCat VFR VFR VFR VFR VFR VFR VFR VFR VFR VFR VFR
  [MVFR]  
VFR
  [MVFR]  
VFR
  [MVFR]  
VFR
WX -- VCSH -- -- -- -- -- -- -- -- --
  [--]  
--
  [--]  
--
  [--]  
--
WDir VRB 150 VRB VRB VRB VRB VRB VRB VRB VRB VRB
[VRB]
VRB
[VRB]
VRB
[VRB]
VRB
WSpd 0 5 3 3 3 3 3 3 3 3 3
  [3]  
3
  [3]  
3
  [3]  
3
WGst -- -- -- -- -- -- -- -- -- -- --
  [--]  
--
  [--]  
--
  [--]  
--
Raw TAF
KMCO 212340Z 2200/2306 15005KT P6SM VCSH FEW015 SCT040 BKN200
  FM220100 VRB03KT P6SM FEW020 SCT100 BKN200
  TEMPO 2209/2212 SCT008 BKN015 BKN040
  FM221300 20005KT P6SM SCT015 BKN030
  FM221700 24006KT P6SM VCSH SCT030 SCT050 BKN250
  TEMPO 2218/2221 TS BKN025CB BKN050


Raw METAR
KMCO 212353Z 00000KT 10SM FEW065 FEW110 BKN150 BKN250 25/24 A3004 RMK AO2 RAE35 SLP170 P0000 60001 T02500239 10333 20250 53012
KMCO 212253Z 17006KT 10SM -RA FEW015 FEW065 FEW110 SCT190 BKN250 26/23 A3000 RMK AO2 RAB53 SLP158 P0000 T02560233
KMCO 212208Z 16006KT 10SM FEW014 FEW050 BKN150 BKN250 26/24 A3001 RMK AO2 T02610239
KMCO 212153Z 15006KT 10SM BKN012 BKN070 BKN100 BKN250 26/24 A3002 RMK AO2 RAB2057E47 SLP162 P0001 T02610239
KMCO 212141Z 14006KT 10SM -RA BKN012 BKN070 BKN100 BKN250 26/24 A3002 RMK AO2 LTG DSNT NW RAB2057 P0001 T02610244
KMCO 212053Z 14006KT 10SM FEW015 FEW050 SCT170 BKN220 BKN300 27/23 A3000 RMK AO2 LTG DSNT N TSE03B08E49 SLP158 T02720233 58010

METAR Board
Radar Display
Forecast Discussion
For situational awareness. Not to be used for flight planning purposes.